Time;durP1;ratioP1;P1;durP2;ratioP2;P2;SDS_P1;SDS_P2;PMS_P1;PMS_P2;Temp;Humidity;BMP_temperature;BMP_pressure;BME280_temperature;BME280_humidity;BME280_pressure;Samples;Min_cycle;Max_cycle;Signal;HPM_P1;HPM_P2
2023/01/07 00:01:46;;;;;;;1.13;1.08;;;8.90;99.90;;;;;;5096766;28;20043;-91
2023/01/07 00:04:18;;;;;;;1.38;1.17;;;8.80;99.90;;;;;;5080219;28;20493;-89
2023/01/07 00:06:51;;;;;;;1.65;1.55;;;8.90;99.90;;;;;;5096629;28;20484;-89
2023/01/07 00:09:17;;;;;;;2.13;0.80;;;9.00;99.90;;;;;;5097002;28;20062;-89
2023/01/07 00:11:48;;;;;;;3.25;1.33;;;9.30;99.90;;;;;;5096814;28;20470;-89
2023/01/07 00:14:20;;;;;;;2.33;1.45;;;8.70;99.90;;;;;;5096653;28;20138;-89
2023/01/07 00:16:48;;;;;;;0.90;0.80;;;8.90;99.90;;;;;;5080715;28;20054;-90
2023/01/07 00:19:17;;;;;;;1.08;0.88;;;9.00;99.90;;;;;;5096653;28;20055;-88
2023/01/07 00:21:43;;;;;;;1.35;0.70;;;9.00;99.90;;;;;;5096408;28;20043;-88
2023/01/07 00:24:10;;;;;;;1.13;1.00;;;8.40;99.90;;;;;;5096263;28;20047;-89
2023/01/07 00:26:37;;;;;;;2.53;0.88;;;9.00;99.90;;;;;;5096225;28;20571;-88
2023/01/07 00:29:04;;;;;;;0.40;0.40;;;9.10;99.90;;;;;;5095964;28;20478;-89
2023/01/07 00:31:35;;;;;;;1.73;0.82;;;9.00;99.90;;;;;;5096266;28;20123;-87
2023/01/07 00:36:35;;;;;;;0.90;0.80;;;9.10;99.90;;;;;;5113279;28;20107;-88
2023/01/07 00:39:17;;;;;;;0.82;0.60;;;9.10;99.90;;;;;;5096423;28;20462;-88
2023/01/07 00:44:32;;;;;;;0.20;0.20;;;9.10;99.90;;;;;;5113080;28;20485;-88
2023/01/07 00:46:58;;;;;;;1.88;0.60;;;9.20;99.90;;;;;;5095856;28;20085;-88
2023/01/07 00:49:25;;;;;;;0.93;0.57;;;9.20;99.90;;;;;;5096130;28;20066;-88
2023/01/07 00:51:54;;;;;;;3.50;0.93;;;9.20;99.90;;;;;;5095404;28;20043;-89
2023/01/07 00:54:26;;;;;;;1.13;0.63;;;9.20;99.90;;;;;;5095923;28;20512;-89
2023/01/07 00:56:53;;;;;;;1.77;0.52;;;9.30;99.90;;;;;;5079277;28;20101;-89
2023/01/07 00:59:19;;;;;;;1.67;0.95;;;9.30;99.90;;;;;;5095979;28;20040;-89
2023/01/07 01:01:49;;;;;;;1.60;0.50;;;9.30;99.90;;;;;;5112724;28;20436;-89
2023/01/07 01:04:16;;;;;;;1.38;0.43;;;9.30;99.90;;;;;;5096066;28;20081;-88
2023/01/07 01:06:41;;;;;;;1.33;0.57;;;9.30;99.90;;;;;;5095311;28;20044;-88
2023/01/07 01:09:10;;;;;;;1.00;0.90;;;9.40;99.90;;;;;;5095226;28;20043;-89
2023/01/07 01:11:38;;;;;;;1.85;0.70;;;9.30;99.90;;;;;;5095825;28;20075;-89
2023/01/07 01:14:04;;;;;;;0.90;0.50;;;9.00;99.90;;;;;;5095222;28;20047;-89
2023/01/07 01:16:32;;;;;;;1.57;1.13;;;9.40;99.90;;;;;;5095413;28;20044;-89
2023/01/07 01:19:02;;;;;;;0.88;0.57;;;9.40;99.90;;;;;;5095162;28;20416;-89
2023/01/07 01:21:31;;;;;;;0.82;0.55;;;9.50;99.90;;;;;;5095365;28;20050;-89
2023/01/07 01:23:57;;;;;;;1.65;0.68;;;9.40;99.90;;;;;;5095269;28;20043;-89
2023/01/07 01:26:24;;;;;;;0.90;0.60;;;9.40;99.90;;;;;;5095929;28;20512;-89
2023/01/07 01:28:54;;;;;;;1.60;0.68;;;9.60;99.90;;;;;;5078607;28;20105;-89
2023/01/07 01:31:20;;;;;;;0.88;0.60;;;9.60;99.90;;;;;;5078982;28;20093;-88
2023/01/07 01:33:46;;;;;;;1.43;0.70;;;9.60;99.90;;;;;;5095210;28;20047;-89
2023/01/07 01:36:12;;;;;;;2.33;1.00;;;10.50;99.90;;;;;;5078103;28;20044;-89
2023/01/07 01:38:40;;;;;;;0.70;0.70;;;9.50;99.90;;;;;;5095160;28;20035;-89
2023/01/07 01:41:06;;;;;;;0.88;0.70;;;9.60;99.90;;;;;;5078737;28;20036;-89
2023/01/07 01:43:35;;;;;;;0.70;0.70;;;9.60;99.90;;;;;;5094836;28;20048;-90
2023/01/07 01:46:15;;;;;;;2.35;0.55;;;9.60;99.90;;;;;;5094986;28;20093;-89
2023/01/07 01:48:46;;;;;;;1.05;0.93;;;9.60;99.90;;;;;;5095618;28;20185;-88
2023/01/07 01:51:23;;;;;;;1.30;0.45;;;9.60;99.90;;;;;;5094860;28;20079;-89
2023/01/07 01:53:49;;;;;;;1.75;0.85;;;9.60;99.90;;;;;;5095260;28;20044;-88
2023/01/07 01:56:20;;;;;;;0.95;0.60;;;9.70;99.90;;;;;;5094628;28;20035;-89
2023/01/07 01:58:56;;;;;;;0.73;0.73;;;9.60;99.90;;;;;;5095102;28;20047;-89
2023/01/07 02:01:26;;;;;;;1.38;0.90;;;9.70;99.90;;;;;;5095129;28;20050;-89
2023/01/07 02:03:56;;;;;;;1.10;0.60;;;9.70;99.90;;;;;;5097539;28;20127;-89
2023/01/07 02:06:31;;;;;;;1.67;0.88;;;9.50;99.90;;;;;;5099626;28;20497;-89
2023/01/07 02:09:00;;;;;;;2.05;1.00;;;9.70;99.90;;;;;;5099403;28;20055;-93
2023/01/07 02:11:43;;;;;;;1.75;0.70;;;9.70;99.90;;;;;;5082509;28;20066;-89
2023/01/07 02:14:19;;;;;;;0.93;0.50;;;9.70;99.90;;;;;;5098894;28;20075;-89
2023/01/07 02:17:19;;;;;;;2.00;0.82;;;9.80;99.90;;;;;;5099195;28;20043;-89
2023/01/07 02:20:15;;;;;;;0.70;0.60;;;9.80;99.90;;;;;;5098947;28;20134;-89
2023/01/07 02:22:53;;;;;;;0.82;0.52;;;9.80;99.90;;;;;;5099002;28;20096;-89
2023/01/07 02:25:36;;;;;;;0.68;0.63;;;9.80;99.90;;;;;;5098881;28;20485;-89
2023/01/07 02:28:25;;;;;;;0.77;0.47;;;9.80;99.90;;;;;;5097754;28;20501;-89
2023/01/07 02:31:23;;;;;;;2.47;0.65;;;9.90;99.90;;;;;;5098988;28;20048;-89
2023/01/07 02:34:14;;;;;;;1.43;0.60;;;9.80;99.90;;;;;;5098604;28;20039;-89
2023/01/07 02:36:59;;;;;;;1.30;0.90;;;9.80;99.90;;;;;;5099052;28;20055;-89
2023/01/07 02:39:59;;;;;;;1.73;0.80;;;9.90;99.90;;;;;;5098415;28;20066;-89
2023/01/07 02:42:43;;;;;;;0.90;0.68;;;9.90;99.90;;;;;;5097974;28;20052;-90
2023/01/07 02:45:33;;;;;;;1.67;0.93;;;9.80;99.90;;;;;;5098362;28;20063;-89
2023/01/07 02:48:15;;;;;;;2.55;1.15;;;9.90;99.90;;;;;;5098358;28;20055;-89
2023/01/07 02:50:49;;;;;;;0.85;0.82;;;9.80;99.90;;;;;;5098323;28;20043;-89
2023/01/07 02:53:28;;;;;;;;;;;;;;;;;;;;;
2023/01/07 02:56:46;;;;;;;0.75;0.45;;;9.80;99.90;;;;;;5115336;28;20052;-89
2023/01/07 02:59:36;;;;;;;1.85;0.65;;;9.80;99.90;;;;;;5049781;28;20052;-89
2023/01/07 03:02:25;;;;;;;1.40;0.73;;;9.90;99.90;;;;;;5098088;28;20512;-89
2023/01/07 03:05:19;;;;;;;0.75;0.47;;;9.90;99.90;;;;;;5098624;28;20044;-89
2023/01/07 03:08:14;;;;;;;0.90;0.85;;;9.90;99.90;;;;;;5098008;28;20047;-89
2023/01/07 03:10:58;;;;;;;1.60;0.77;;;9.90;99.90;;;;;;5098016;28;20047;-89
2023/01/07 03:13:57;;;;;;;;;;;;;;;;;;;;;
2023/01/07 03:16:33;;;;;;;0.77;0.75;;;9.80;99.90;;;;;;5114688;28;20047;-89
2023/01/07 03:19:17;;;;;;;1.95;0.70;;;9.80;99.90;;;;;;5097986;28;20043;-89
2023/01/07 03:21:46;;;;;;;0.85;0.55;;;9.80;99.90;;;;;;5097614;28;20126;-89
2023/01/07 03:24:15;;;;;;;1.40;0.93;;;9.90;99.90;;;;;;5097381;28;20047;-89
2023/01/07 03:26:50;;;;;;;1.45;1.30;;;9.90;99.90;;;;;;5098437;28;20047;-89
2023/01/07 03:29:18;;;;;;;1.05;0.75;;;9.80;99.90;;;;;;5097490;28;20048;-89
2023/01/07 03:32:16;;;;;;;1.90;1.25;;;9.80;99.90;;;;;;5097806;28;20081;-89
2023/01/07 03:34:43;;;;;;;0.45;0.40;;;9.80;99.90;;;;;;5096465;28;20497;-89
2023/01/07 03:37:16;;;;;;;1.25;0.93;;;9.80;99.90;;;;;;5097180;28;20101;-89
2023/01/07 03:39:44;;;;;;;1.38;0.75;;;9.80;99.90;;;;;;5097466;28;20135;-89
2023/01/07 03:45:05;;;;;;;2.80;0.80;;;9.80;99.90;;;;;;5114315;28;20048;-89
2023/01/07 03:47:33;;;;;;;0.93;0.55;;;9.90;99.90;;;;;;5096815;28;20051;-89
2023/01/07 03:50:01;;;;;;;1.08;0.93;;;8.80;99.90;;;;;;5097470;28;20048;-89
2023/01/07 03:52:30;;;;;;;1.63;0.82;;;9.70;99.90;;;;;;5080530;28;20055;-89
2023/01/07 03:54:56;;;;;;;1.38;1.27;;;9.70;99.90;;;;;;5097435;28;20047;-89
2023/01/07 03:57:33;;;;;;;1.33;1.30;;;9.80;99.90;;;;;;5096556;28;20053;-89
2023/01/07 03:59:59;;;;;;;;;;;9.70;99.90;;;;;;5082204;28;20056;-89
2023/01/07 04:02:25;;;;;;;2.58;0.73;;;9.80;99.90;;;;;;5096518;28;20426;-89
2023/01/07 04:04:55;;;;;;;1.70;1.40;;;9.70;99.90;;;;;;5080398;28;20079;-89
2023/01/07 04:07:30;;;;;;;1.25;0.85;;;9.70;99.90;;;;;;5079998;28;20079;-89
2023/01/07 04:10:05;;;;;;;1.38;1.20;;;9.60;99.90;;;;;;5079833;28;20436;-89
2023/01/07 04:12:34;;;;;;;3.78;0.93;;;9.50;99.90;;;;;;5079767;28;20044;-90
2023/01/07 04:15:16;;;;;;;1.55;0.77;;;9.50;99.90;;;;;;5096935;28;20443;-89
2023/01/07 04:17:47;;;;;;;0.90;0.70;;;9.60;99.90;;;;;;5083042;28;20046;-89
2023/01/07 04:20:13;;;;;;;1.15;0.63;;;9.60;99.90;;;;;;5096460;28;20059;-95
2023/01/07 04:22:48;;;;;;;1.98;1.10;;;9.10;99.90;;;;;;5097462;28;20073;-89
2023/01/07 04:25:26;;;;;;;0.77;0.77;;;9.50;99.90;;;;;;5095929;28;20081;-94
2023/01/07 04:27:57;;;;;;;0.98;0.63;;;9.60;99.90;;;;;;5096963;28;20047;-89
2023/01/07 04:30:23;;;;;;;1.60;1.27;;;9.60;99.90;;;;;;5095852;28;20047;-90
2023/01/07 04:32:53;;;;;;;1.20;0.60;;;9.90;99.90;;;;;;5096339;28;20047;-89
2023/01/07 04:35:29;;;;;;;1.40;0.98;;;9.60;99.90;;;;;;5079071;28;20126;-90
2023/01/07 04:37:57;;;;;;;2.72;0.60;;;9.50;99.90;;;;;;5097184;28;20129;-89
2023/01/07 04:40:33;;;;;;;1.10;0.70;;;9.40;99.90;;;;;;5096000;28;20109;-89
2023/01/07 04:43:04;;;;;;;1.35;0.77;;;9.50;99.90;;;;;;5095868;28;20056;-89
2023/01/07 04:45:29;;;;;;;1.98;1.00;;;9.50;99.90;;;;;;5079331;28;20043;-89
2023/01/07 04:48:03;;;;;;;2.13;0.87;;;9.30;99.90;;;;;;5096296;28;20500;-89
2023/01/07 04:50:34;;;;;;;1.38;0.90;;;9.50;99.90;;;;;;5079954;28;20374;-90
2023/01/07 04:53:00;;;;;;;1.63;0.88;;;9.50;99.90;;;;;;5095800;28;20042;-89
2023/01/07 04:55:38;;;;;;;;;;;;;;;;;;;;;
2023/01/07 04:58:08;;;;;;;2.83;1.95;;;9.50;99.90;;;;;;5112839;28;20462;-89
2023/01/07 05:00:49;;;;;;;1.15;0.55;;;9.50;99.90;;;;;;5095778;28;20138;-89
2023/01/07 05:03:36;;;;;;;1.23;0.90;;;8.50;99.90;;;;;;5079599;28;20053;-89
2023/01/07 05:06:04;;;;;;;1.75;0.65;;;9.60;99.90;;;;;;5112109;28;20058;-89
2023/01/07 05:08:30;;;;;;;1.55;0.93;;;9.50;99.90;;;;;;5095116;28;20050;-90
2023/01/07 05:11:00;;;;;;;0.57;0.57;;;9.50;99.90;;;;;;5096007;28;20044;-89
2023/01/07 05:13:34;;;;;;;1.50;0.68;;;9.60;99.90;;;;;;5078965;28;20130;-89
2023/01/07 05:16:02;;;;;;;1.23;0.75;;;9.60;99.90;;;;;;5095826;28;20039;-89
2023/01/07 05:18:33;;;;;;;2.03;1.27;;;9.70;99.90;;;;;;5095813;28;20112;-89
2023/01/07 05:21:09;;;;;;;2.53;1.23;;;9.50;99.90;;;;;;5078918;28;20058;-89
2023/01/07 05:23:38;;;;;;;1.00;0.50;;;9.50;99.90;;;;;;5080002;28;20104;-89
2023/01/07 05:26:08;;;;;;;2.80;1.00;;;10.90;99.90;;;;;;5078922;28;20104;-90
2023/01/07 05:28:41;;;;;;;0.57;0.55;;;9.60;99.90;;;;;;5079160;28;20044;-90
2023/01/07 05:31:07;;;;;;;2.05;0.70;;;9.50;99.90;;;;;;5095398;28;20044;-90
2023/01/07 05:33:36;;;;;;;1.10;0.70;;;9.60;99.90;;;;;;5078193;28;20408;-90
2023/01/07 05:36:08;;;;;;;1.40;0.80;;;9.50;99.90;;;;;;5095260;28;20118;-90
2023/01/07 05:38:36;;;;;;;2.55;0.63;;;9.60;99.90;;;;;;5077780;28;20405;-90
2023/01/07 05:41:07;;;;;;;1.73;1.13;;;9.60;99.90;;;;;;5061978;28;20047;-89
2023/01/07 05:43:38;;;;;;;1.95;1.30;;;8.90;99.90;;;;;;5078158;28;20512;-89
2023/01/07 05:48:54;;;;;;;2.05;0.75;;;8.60;99.90;;;;;;5112165;28;20047;-89
2023/01/07 05:51:23;;;;;;;1.88;0.85;;;9.60;99.90;;;;;;5078770;28;20043;-89
2023/01/07 05:54:09;;;;;;;1.92;0.77;;;9.60;99.90;;;;;;5078277;28;20054;-89
2023/01/07 05:56:37;;;;;;;2.42;0.80;;;9.50;99.90;;;;;;5094808;28;20047;-89
2023/01/07 05:59:24;;;;;;;1.13;1.02;;;9.50;99.90;;;;;;5079087;28;20531;-89
2023/01/07 06:01:50;;;;;;;1.00;0.82;;;9.50;99.90;;;;;;5095223;28;20046;-90
2023/01/07 06:04:16;;;;;;;1.50;1.33;;;9.50;99.90;;;;;;5094712;28;20401;-90
2023/01/07 06:06:46;;;;;;;1.30;0.60;;;9.50;99.90;;;;;;5094856;28;20048;-90
2023/01/07 06:09:12;;;;;;;1.80;0.70;;;9.60;99.90;;;;;;5078588;28;20054;-89
2023/01/07 06:11:41;;;;;;;0.93;0.60;;;9.60;99.90;;;;;;5094788;28;20047;-90
2023/01/07 06:14:17;;;;;;;1.30;0.90;;;9.60;99.90;;;;;;5078034;28;20083;-90
2023/01/07 06:16:43;;;;;;;0.77;0.73;;;9.60;99.90;;;;;;5077986;28;20043;-90
2023/01/07 06:19:18;;;;;;;2.53;1.00;;;8.60;99.90;;;;;;5094649;28;20050;-89
2023/01/07 06:21:44;;;;;;;2.88;0.80;;;9.50;99.90;;;;;;5094519;28;20093;-91
2023/01/07 06:24:10;;;;;;;0.40;0.40;;;9.60;99.90;;;;;;5095532;28;20043;-90
2023/01/07 06:26:36;;;;;;;1.27;1.00;;;9.50;99.90;;;;;;5094512;28;20046;-90
2023/01/07 06:29:29;;;;;;;1.63;0.82;;;9.50;99.90;;;;;;5078765;28;20472;-90
2023/01/07 06:32:08;;;;;;;0.75;0.75;;;9.60;99.90;;;;;;5095094;28;20039;-90
2023/01/07 06:34:39;;;;;;;1.23;0.85;;;9.40;99.90;;;;;;5079489;28;20048;-90
2023/01/07 06:37:17;;;;;;;0.75;0.70;;;9.50;99.90;;;;;;5094681;28;20044;-90
2023/01/07 06:39:51;;;;;;;0.50;0.50;;;8.90;99.90;;;;;;5078772;28;20051;-90
2023/01/07 06:42:23;;;;;;;1.40;0.85;;;9.50;99.90;;;;;;5096895;27;20067;-90
2023/01/07 06:44:54;;;;;;;2.35;0.88;;;9.50;99.90;;;;;;5082442;28;20063;-90
2023/01/07 06:47:27;;;;;;;1.23;0.90;;;9.50;99.90;;;;;;5098462;28;20042;-90
2023/01/07 06:50:01;;;;;;;0.52;0.52;;;9.50;99.90;;;;;;5100169;27;20043;-89
2023/01/07 06:52:30;;;;;;;0.30;0.30;;;10.20;99.90;;;;;;5101713;27;20043;-90
2023/01/07 06:54:59;;;;;;;0.60;0.52;;;9.50;99.90;;;;;;5118694;27;20050;-90
2023/01/07 06:57:25;;;;;;;0.43;0.43;;;9.50;99.90;;;;;;5085033;27;20043;-89
2023/01/07 07:00:00;;;;;;;0.90;0.63;;;9.50;99.90;;;;;;5103777;27;20370;-90
2023/01/07 07:02:32;;;;;;;1.67;0.40;;;9.40;99.90;;;;;;5101761;27;20035;-90
2023/01/07 07:05:01;;;;;;;2.15;1.05;;;9.50;99.90;;;;;;5101751;27;20043;-90
2023/01/07 07:07:30;;;;;;;0.73;0.60;;;10.10;99.90;;;;;;5101442;27;20066;-90
2023/01/07 07:10:06;;;;;;;1.00;0.68;;;9.40;99.90;;;;;;5103741;27;20110;-90
2023/01/07 07:12:36;;;;;;;0.57;0.40;;;9.50;99.90;;;;;;5101103;27;20492;-89
2023/01/07 07:15:08;;;;;;;0.77;0.60;;;9.30;99.90;;;;;;5101403;27;20140;-90
2023/01/07 07:17:37;;;;;;;1.63;0.82;;;9.50;99.90;;;;;;5101227;27;20038;-94
2023/01/07 07:20:08;;;;;;;0.68;0.40;;;9.40;99.90;;;;;;5101170;27;20043;-90
2023/01/07 07:22:36;;;;;;;0.63;0.55;;;9.10;99.90;;;;;;5101289;27;20040;-90
2023/01/07 07:25:03;;;;;;;1.45;0.60;;;9.40;99.90;;;;;;5101390;27;20509;-89
2023/01/07 07:27:38;;;;;;;0.88;0.80;;;9.40;99.90;;;;;;5101263;27;20133;-90
2023/01/07 07:30:09;;;;;;;0.63;0.63;;;9.40;99.90;;;;;;5101677;27;20174;-89
2023/01/07 07:35:59;;;;;;;1.42;0.88;;;9.40;99.90;;;;;;5119427;27;20055;-91
2023/01/07 07:41:54;;;;;;;1.48;0.55;;;8.80;99.90;;;;;;5105188;27;20095;-91
2023/01/07 07:44:19;;;;;;;0.70;0.63;;;9.00;99.90;;;;;;5101537;27;20090;-91
2023/01/07 07:46:54;;;;;;;0.27;0.20;;;9.50;99.90;;;;;;5101685;27;20093;-91
2023/01/07 07:49:20;;;;;;;0.95;0.50;;;9.40;99.90;;;;;;5102702;27;20289;-92
2023/01/07 07:51:49;;;;;;;1.13;0.60;;;9.30;99.90;;;;;;5103265;27;20058;-91
2023/01/07 08:01:49;;;;;;;;;;;;;;;;;;;;;
2023/01/07 08:04:20;;;;;;;1.85;0.52;;;9.20;99.90;;;;;;5103964;27;20054;-92
2023/01/07 08:07:17;;;;;;;0.80;0.57;;;9.20;99.90;;;;;;5101283;27;20484;-91
2023/01/07 08:09:53;;;;;;;;;;;;;;;;;;;;;
2023/01/07 08:12:50;;;;;;;2.33;0.60;;;9.30;99.90;;;;;;5124306;27;20097;-91
2023/01/07 08:15:29;;;;;;;0.80;0.60;;;9.30;99.90;;;;;;5102054;27;20035;-92
2023/01/07 08:18:00;;;;;;;0.45;0.22;;;9.20;99.90;;;;;;5082027;28;20393;-91
2023/01/07 08:20:30;;;;;;;0.47;0.47;;;9.20;99.90;;;;;;5097931;28;20048;-91
2023/01/07 08:23:40;;;;;;;1.65;0.52;;;9.30;99.90;;;;;;5098109;28;20495;-91
2023/01/07 08:40:53;;;;;;;0.38;0.17;;;9.60;99.90;;;;;;5072595;28;20043;-91
2023/01/07 08:47:08;;;;;;;1.55;0.93;;;8.90;99.90;;;;;;5072392;28;20101;-91
2023/01/07 08:49:45;;;;;;;0.30;0.30;;;9.50;99.90;;;;;;5038863;28;20049;-92
2023/01/07 08:52:24;;;;;;;;;;;;;;;;;;;;;
2023/01/07 09:06:35;;;;;;;0.85;0.30;;;9.40;99.90;;;;;;5092526;28;20101;-91
2023/01/07 09:13:35;;;;;;;;;;;;;;;;;;;;;
2023/01/07 09:16:05;;;;;;;1.42;0.70;;;9.30;99.90;;;;;;5114062;28;20480;-92
2023/01/07 09:19:30;;;;;;;0.28;0.28;;;9.40;99.90;;;;;;5114160;28;20081;-92
2023/01/07 09:37:36;;;;;;;0.30;0.20;;;8.40;99.90;;;;;;5031921;28;20087;-91
2023/01/07 09:48:42;;;;;;;0.63;0.63;;;9.30;99.90;;;;;;4972535;28;20091;-91
2023/01/07 10:18:11;;;;;;;;;;;;;;;;;;;;;
2023/01/07 10:25:28;;;;;;;0.40;0.40;;;9.50;99.90;;;;;;5013580;28;20048;-92
2023/01/07 10:59:43;;;;;;;0.57;0.40;;;9.70;99.90;;;;;;5044204;28;20039;-93
2023/01/07 15:16:31;;;;;;;0.60;0.22;;;9.60;99.90;;;;;;5117162;28;20096;-93
2023/01/07 15:45:43;;;;;;;0.10;0.10;;;9.10;99.90;;;;;;5053923;28;20054;-92
2023/01/07 15:48:39;;;;;;;;;;;;;;;;;;;;;
2023/01/07 15:51:38;;;;;;;0.20;0.15;;;9.10;99.90;;;;;;5074655;28;20054;-91
2023/01/07 15:54:29;;;;;;;0.30;0.20;;;9.10;99.90;;;;;;5061218;28;20051;-91
2023/01/07 15:57:20;;;;;;;0.40;0.40;;;9.20;99.90;;;;;;5060614;28;20218;-92
2023/01/07 16:00:13;;;;;;;1.23;0.30;;;9.00;99.90;;;;;;5060874;28;20036;-92
2023/01/07 16:02:47;;;;;;;1.10;0.40;;;8.90;99.90;;;;;;5078658;28;20048;-96
2023/01/07 16:05:21;;;;;;;1.23;0.57;;;8.00;99.90;;;;;;5060437;28;20138;-92
2023/01/07 16:08:04;;;;;;;0.15;0.10;;;8.40;99.90;;;;;;5046266;28;20051;-92
2023/01/07 16:10:34;;;;;;;0.75;0.30;;;9.10;99.90;;;;;;5076556;28;20058;-92
2023/01/07 16:13:16;;;;;;;0.22;0.20;;;9.10;99.90;;;;;;5059798;28;20043;-91
2023/01/07 16:15:54;;;;;;;0.05;0.05;;;9.00;99.90;;;;;;5059724;28;20052;-92
2023/01/07 16:18:43;;;;;;;0.20;0.20;;;9.20;99.90;;;;;;5060187;28;20193;-92
2023/01/07 16:21:44;;;;;;;;;;;;;;;;;;;;;
2023/01/07 16:24:20;;;;;;;0.40;0.40;;;9.10;99.90;;;;;;5096670;28;20086;-91
2023/01/07 16:27:06;;;;;;;0.30;0.30;;;9.30;99.90;;;;;;5079698;28;20069;-91
2023/01/07 16:30:10;;;;;;;0.38;0.10;;;9.20;99.90;;;;;;5079782;28;20047;-92
2023/01/07 16:32:53;;;;;;;0.17;0.10;;;9.90;99.90;;;;;;5077067;28;20519;-92
2023/01/07 16:35:36;;;;;;;0.25;0.25;;;9.30;99.90;;;;;;5080453;28;20051;-92
2023/01/07 16:38:17;;;;;;;0.20;0.17;;;9.20;99.90;;;;;;5079644;28;20455;-91
2023/01/07 16:40:52;;;;;;;0.22;0.20;;;9.20;99.90;;;;;;5079583;28;20047;-96
2023/01/07 16:43:37;;;;;;;0.60;0.60;;;9.00;99.90;;;;;;5079608;28;20050;-92
2023/01/07 16:46:44;;;;;;;0.32;0.25;;;8.80;99.90;;;;;;5080114;28;20051;-92
2023/01/07 16:52:14;;;;;;;0.55;0.28;;;9.10;99.90;;;;;;5096538;28;20204;-92
2023/01/07 16:54:56;;;;;;;;;;;;;;;;;;;;;
2023/01/07 16:57:40;;;;;;;0.50;0.50;;;9.10;99.90;;;;;;5096873;28;20048;-91
2023/01/07 17:00:28;;;;;;;0.30;0.28;;;9.20;99.90;;;;;;5079757;28;20054;-92
2023/01/07 17:03:00;;;;;;;0.40;0.22;;;9.10;99.90;;;;;;5062451;28;20039;-92
2023/01/07 17:05:34;;;;;;;0.30;0.20;;;9.10;99.90;;;;;;5079353;28;20100;-91
2023/01/07 17:08:15;;;;;;;1.23;0.35;;;9.10;99.90;;;;;;5078935;28;20071;-91
2023/01/07 17:11:19;;;;;;;0.43;0.22;;;8.80;99.90;;;;;;5079732;28;20086;-92
2023/01/07 17:14:15;;;;;;;0.47;0.30;;;9.10;99.90;;;;;;5064973;28;20172;-91
2023/01/07 17:16:57;;;;;;;0.77;0.50;;;8.70;99.90;;;;;;5066184;28;20047;-92
2023/01/07 17:20:00;;;;;;;0.20;0.20;;;9.20;99.90;;;;;;5079333;28;20047;-91
2023/01/07 17:22:39;;;;;;;;;;;;;;;;;;;;;
2023/01/07 17:25:08;;;;;;;0.98;0.22;;;8.30;99.90;;;;;;5095574;28;20141;-91
2023/01/07 17:27:58;;;;;;;0.40;0.40;;;9.10;99.90;;;;;;5078950;28;20090;-92
2023/01/07 17:30:33;;;;;;;1.15;0.52;;;9.10;99.90;;;;;;5078822;28;20489;-92
2023/01/07 17:33:14;;;;;;;0.20;0.20;;;9.10;99.90;;;;;;5078838;28;20419;-92
2023/01/07 17:35:44;;;;;;;0.30;0.28;;;9.10;99.90;;;;;;5079251;28;20044;-92
2023/01/07 17:38:17;;;;;;;1.13;0.50;;;9.00;99.90;;;;;;5062151;28;20509;-91
2023/01/07 17:40:43;;;;;;;0.43;0.20;;;9.10;99.90;;;;;;5079000;28;20071;-92
2023/01/07 17:43:32;;;;;;;1.83;0.32;;;8.40;99.90;;;;;;5078455;28;20051;-92
2023/01/07 17:46:13;;;;;;;0.30;0.30;;;9.10;99.90;;;;;;5078881;28;20047;-91
2023/01/07 17:48:48;;;;;;;0.75;0.35;;;9.00;99.90;;;;;;5079138;28;20047;-92
2023/01/07 17:51:23;;;;;;;0.38;0.38;;;9.00;99.90;;;;;;5078484;28;20043;-92
2023/01/07 17:54:05;;;;;;;;;;;;;;;;;;;;;
2023/01/07 17:56:39;;;;;;;0.47;0.45;;;9.10;99.90;;;;;;5096007;28;20048;-92
2023/01/07 17:59:13;;;;;;;1.00;0.40;;;9.10;99.90;;;;;;5078659;28;20147;-91
2023/01/07 18:01:49;;;;;;;;;;;;;;;;;;;;;
2023/01/07 18:04:20;;;;;;;0.88;0.35;;;9.10;99.90;;;;;;5095329;28;20039;-92
2023/01/07 18:06:50;;;;;;;0.47;0.47;;;9.10;99.90;;;;;;5078954;28;20051;-92
2023/01/07 18:09:21;;;;;;;0.60;0.20;;;9.20;99.90;;;;;;5078496;28;20399;-91
2023/01/07 18:14:34;;;;;;;0.15;0.15;;;9.20;99.90;;;;;;5095455;28;20055;-92
2023/01/07 18:17:06;;;;;;;1.50;0.30;;;8.10;99.90;;;;;;5044928;28;20043;-91
2023/01/07 18:19:32;;;;;;;0.73;0.40;;;9.90;99.90;;;;;;5079273;28;20040;-92
2023/01/07 18:22:09;;;;;;;0.60;0.60;;;8.90;99.90;;;;;;5077669;28;20058;-91
2023/01/07 18:24:39;;;;;;;0.70;0.50;;;8.90;99.90;;;;;;5061519;28;20478;-91
2023/01/07 18:27:27;;;;;;;0.95;0.30;;;8.70;99.90;;;;;;5078874;28;20044;-91
2023/01/07 18:29:58;;;;;;;0.70;0.45;;;8.80;99.90;;;;;;5077735;28;20060;-93
2023/01/07 18:32:42;;;;;;;1.33;0.88;;;8.70;99.90;;;;;;5078286;28;20043;-91
2023/01/07 18:35:09;;;;;;;0.30;0.30;;;8.50;99.90;;;;;;5077947;28;20397;-91
2023/01/07 18:37:43;;;;;;;0.60;0.55;;;8.70;99.90;;;;;;5078040;28;20050;-92
2023/01/07 18:40:30;;;;;;;0.55;0.55;;;8.70;99.90;;;;;;5077569;28;20127;-91
2023/01/07 18:43:07;;;;;;;0.55;0.17;;;8.60;99.90;;;;;;5061602;28;20553;-91
2023/01/07 18:45:42;;;;;;;0.63;0.40;;;8.70;99.90;;;;;;5066448;28;20040;-91
2023/01/07 18:48:18;;;;;;;0.50;0.50;;;7.70;99.90;;;;;;5064778;28;20497;-91
2023/01/07 18:50:46;;;;;;;0.57;0.43;;;8.60;99.90;;;;;;5081610;28;20056;-91
2023/01/07 18:53:25;;;;;;;;;;;;;;;;;;;;;
2023/01/07 18:56:07;;;;;;;1.83;0.55;;;8.50;99.90;;;;;;5098114;28;20044;-91
2023/01/07 18:58:41;;;;;;;0.30;0.30;;;8.60;99.90;;;;;;5098630;28;20043;-91
2023/01/07 19:01:15;;;;;;;0.63;0.43;;;8.40;99.90;;;;;;5065000;28;20056;-91
2023/01/07 19:03:41;;;;;;;0.47;0.40;;;8.50;99.90;;;;;;5081342;28;20048;-91
2023/01/07 19:06:09;;;;;;;0.40;0.40;;;8.40;99.90;;;;;;5080960;28;20044;-90
2023/01/07 19:08:37;;;;;;;0.13;0.10;;;8.40;99.90;;;;;;5080897;28;20289;-91
2023/01/07 19:11:43;;;;;;;;;;;;;;;;;;;;;
2023/01/07 19:14:16;;;;;;;0.47;0.22;;;8.40;99.90;;;;;;5097659;28;20552;-91
2023/01/07 19:16:45;;;;;;;0.70;0.70;;;8.40;99.90;;;;;;5064978;28;20039;-91
2023/01/07 19:19:16;;;;;;;0.22;0.20;;;8.30;99.90;;;;;;5081199;28;20447;-91
2023/01/07 19:21:42;;;;;;;0.85;0.85;;;8.40;99.90;;;;;;5080301;28;20044;-91
2023/01/07 19:24:26;;;;;;;;;;;;;;;;;;;;;
2023/01/07 19:27:02;;;;;;;1.05;0.35;;;8.40;99.90;;;;;;5097822;28;20300;-91
2023/01/07 19:29:28;;;;;;;0.63;0.50;;;8.30;99.90;;;;;;5080910;28;20082;-91
2023/01/07 19:32:04;;;;;;;0.30;0.20;;;8.50;99.90;;;;;;5081024;28;20097;-91
2023/01/07 19:34:35;;;;;;;0.33;0.20;;;8.40;99.90;;;;;;5080832;28;20066;-91
2023/01/07 19:37:08;;;;;;;0.10;0.05;;;8.40;99.90;;;;;;5081210;28;20321;-91
2023/01/07 19:39:39;;;;;;;0.30;0.30;;;8.60;99.90;;;;;;5081351;28;20078;-91
2023/01/07 19:42:14;;;;;;;0.32;0.32;;;8.50;99.90;;;;;;5080335;28;20131;-92
2023/01/07 19:44:42;;;;;;;0.38;0.38;;;8.50;99.90;;;;;;5080555;28;20040;-91
2023/01/07 19:47:08;;;;;;;0.20;0.20;;;8.10;99.90;;;;;;5063868;28;20104;-92
2023/01/07 19:49:50;;;;;;;0.20;0.20;;;8.60;99.90;;;;;;5081074;28;20047;-92
2023/01/07 19:52:16;;;;;;;0.30;0.30;;;8.50;99.90;;;;;;5079968;28;20109;-92
2023/01/07 19:54:53;;;;;;;0.47;0.30;;;7.50;99.90;;;;;;5080326;28;20052;-93
2023/01/07 19:57:27;;;;;;;0.40;0.20;;;8.60;99.90;;;;;;5080270;28;20860;-92
2023/01/07 20:00:24;;;;;;;;;;;;;;;;;;;;;
2023/01/07 20:02:52;;;;;;;0.88;0.38;;;8.50;99.90;;;;;;5097501;28;20046;-92
2023/01/07 20:05:24;;;;;;;0.35;0.35;;;8.50;99.90;;;;;;5079999;28;20493;-91
2023/01/07 20:07:52;;;;;;;0.20;0.20;;;8.60;99.90;;;;;;5080903;28;20051;-92
2023/01/07 20:10:20;;;;;;;0.47;0.25;;;8.60;99.90;;;;;;5063609;28;20047;-92
2023/01/07 20:13:05;;;;;;;1.52;0.63;;;8.60;99.90;;;;;;5064365;28;20040;-91
2023/01/07 20:15:31;;;;;;;1.02;0.30;;;8.60;99.90;;;;;;5065292;28;20135;-92
2023/01/07 20:18:06;;;;;;;0.98;0.98;;;8.60;99.90;;;;;;5080750;28;20086;-91
2023/01/07 20:20:35;;;;;;;0.45;0.45;;;8.60;99.90;;;;;;5080431;28;20040;-92
2023/01/07 20:23:09;;;;;;;0.25;0.25;;;9.30;99.90;;;;;;5076505;28;20055;-92
2023/01/07 20:25:47;;;;;;;0.75;0.68;;;8.60;99.90;;;;;;5047449;28;20061;-92
2023/01/07 20:28:16;;;;;;;0.50;0.50;;;8.60;99.90;;;;;;5079745;28;20501;-92
2023/01/07 20:30:54;;;;;;;0.55;0.40;;;9.10;99.90;;;;;;5080137;28;20440;-92
2023/01/07 20:33:20;;;;;;;1.02;0.50;;;8.70;99.90;;;;;;5080055;28;20039;-92
2023/01/07 20:35:57;;;;;;;0.20;0.20;;;8.70;99.90;;;;;;5080350;28;20167;-92
2023/01/07 20:38:28;;;;;;;1.52;0.32;;;7.90;99.90;;;;;;5079962;28;20370;-91
2023/01/07 20:41:01;;;;;;;0.28;0.20;;;7.70;99.90;;;;;;5080041;28;20413;-92
2023/01/07 20:43:45;;;;;;;0.20;0.20;;;8.80;99.90;;;;;;5063550;28;20489;-92
2023/01/07 20:46:14;;;;;;;0.47;0.38;;;8.70;99.90;;;;;;5065588;28;20039;-92
2023/01/07 20:48:49;;;;;;;0.30;0.30;;;8.70;99.90;;;;;;5063750;28;20127;-92
2023/01/07 20:51:23;;;;;;;0.40;0.40;;;8.80;99.90;;;;;;5079677;28;20517;-93
2023/01/07 20:53:54;;;;;;;0.40;0.40;;;8.80;99.90;;;;;;5080051;28;20130;-92
2023/01/07 20:56:33;;;;;;;0.73;0.30;;;8.80;99.90;;;;;;5064037;28;20101;-92
2023/01/07 20:59:02;;;;;;;1.50;0.50;;;8.90;99.90;;;;;;5064180;28;20047;-93
2023/01/07 21:01:31;;;;;;;0.85;0.45;;;8.90;99.90;;;;;;5080024;28;20047;-93
2023/01/07 21:04:00;;;;;;;0.60;0.40;;;8.80;99.90;;;;;;5079803;28;20546;-92
2023/01/07 21:06:26;;;;;;;0.43;0.40;;;8.80;99.90;;;;;;5079661;28;20051;-92
2023/01/07 21:08:57;;;;;;;0.80;0.40;;;8.80;99.90;;;;;;5063027;28;20039;-92
2023/01/07 21:11:45;;;;;;;0.20;0.20;;;8.80;99.90;;;;;;5063257;28;20286;-92
2023/01/07 21:14:39;;;;;;;;;;;;;;;;;;;;;